Time;durP1;ratioP1;P1;durP2;ratioP2;P2;SDS_P1;SDS_P2;PMS_P1;PMS_P2;Temp;Humidity;BMP_temperature;BMP_pressure;BME280_temperature;BME280_humidity;BME280_pressure;Samples;Min_cycle;Max_cycle;Signal;HPM_P1;HPM_P2
2022/04/13 00:00:10;;;;;;;5.23;2.20;;;15.90;90.40;;;;;;5073433;28;20212;-57
2022/04/13 00:02:37;;;;;;;5.23;2.90;;;15.90;90.80;;;;;;5073853;28;20229;-57
2022/04/13 00:05:06;;;;;;;5.40;2.60;;;15.80;91.10;;;;;;5073986;28;20267;-57
2022/04/13 00:07:32;;;;;;;9.70;3.60;;;15.70;91.20;;;;;;5073774;28;20209;-57
2022/04/13 00:09:59;;;;;;;4.57;2.50;;;15.70;91.30;;;;;;5073357;28;20220;-57
2022/04/13 00:12:26;;;;;;;3.23;2.00;;;15.60;91.20;;;;;;5073673;28;20228;-57
2022/04/13 00:14:52;;;;;;;4.37;2.00;;;15.60;91.30;;;;;;5073912;28;20259;-57
2022/04/13 00:17:20;;;;;;;3.20;2.20;;;15.60;91.30;;;;;;5073584;28;20615;-58
2022/04/13 00:19:47;;;;;;;5.03;2.30;;;15.50;91.20;;;;;;5073481;28;20245;-57
2022/04/13 00:22:14;;;;;;;4.03;1.90;;;15.50;91.40;;;;;;5073535;28;20236;-57
2022/04/13 00:24:41;;;;;;;3.00;2.27;;;15.40;91.60;;;;;;5073776;28;20294;-57
2022/04/13 00:27:08;;;;;;;2.77;2.10;;;15.30;91.80;;;;;;5073554;28;20205;-56
2022/04/13 00:29:35;;;;;;;3.40;2.10;;;15.30;92.00;;;;;;5073572;28;20201;-59
2022/04/13 00:32:03;;;;;;;3.57;2.13;;;15.30;92.10;;;;;;5073469;28;20232;-57
2022/04/13 00:34:30;;;;;;;3.50;2.10;;;15.30;92.30;;;;;;5073529;28;20296;-57
2022/04/13 00:36:57;;;;;;;2.90;1.90;;;15.20;92.50;;;;;;5073337;28;20212;-56
2022/04/13 00:39:25;;;;;;;2.57;1.80;;;15.10;92.80;;;;;;5072964;28;20232;-57
2022/04/13 00:41:57;;;;;;;2.83;2.00;;;15.00;93.10;;;;;;5073258;28;20271;-56
2022/04/13 00:44:23;;;;;;;4.03;1.90;;;15.00;93.40;;;;;;5073325;28;20209;-56
2022/04/13 00:46:50;;;;;;;3.93;1.77;;;14.80;93.70;;;;;;5072534;28;20239;-56
2022/04/13 00:49:18;;;;;;;3.10;1.73;;;14.80;93.80;;;;;;5073028;28;20201;-56
2022/04/13 00:51:45;;;;;;;2.90;1.80;;;14.80;94.10;;;;;;5072962;28;20274;-57
2022/04/13 00:54:14;;;;;;;4.20;1.90;;;14.70;94.20;;;;;;5072820;28;20211;-56
2022/04/13 00:56:44;;;;;;;6.90;3.27;;;14.70;94.20;;;;;;5072717;28;20258;-56
2022/04/13 00:59:13;;;;;;;2.60;1.83;;;14.70;94.30;;;;;;5072674;28;20292;-56
2022/04/13 01:01:41;;;;;;;2.30;1.80;;;14.70;94.70;;;;;;5072591;28;20225;-56
2022/04/13 01:04:11;;;;;;;6.43;2.20;;;14.60;94.90;;;;;;5072541;28;20262;-56
2022/04/13 01:06:39;;;;;;;2.83;1.93;;;14.50;95.10;;;;;;5072539;28;20205;-57
2022/04/13 01:09:06;;;;;;;3.37;2.20;;;14.40;95.10;;;;;;5072330;28;20227;-57
2022/04/13 01:11:33;;;;;;;4.47;2.30;;;14.40;95.40;;;;;;5072789;28;20229;-57
2022/04/13 01:14:01;;;;;;;3.87;2.00;;;14.30;95.40;;;;;;5072693;28;20209;-57
2022/04/13 01:16:28;;;;;;;2.97;1.80;;;14.20;95.60;;;;;;5072548;28;20204;-57
2022/04/13 01:18:55;;;;;;;3.57;1.80;;;14.20;95.70;;;;;;5072167;28;20225;-57
2022/04/13 01:21:44;;;;;;;2.47;1.67;;;14.20;95.90;;;;;;5072213;28;20232;-57
2022/04/13 01:24:13;;;;;;;2.60;1.70;;;14.00;96.10;;;;;;5072526;28;20255;-56
2022/04/13 01:26:40;;;;;;;2.13;1.60;;;13.90;96.40;;;;;;5072284;28;20201;-57
2022/04/13 01:29:07;;;;;;;4.90;1.40;;;13.80;96.80;;;;;;5072115;28;20769;-57
2022/04/13 01:31:34;;;;;;;5.87;1.90;;;13.60;97.00;;;;;;5072066;28;20225;-57
2022/04/13 01:34:00;;;;;;;4.47;1.70;;;13.40;97.30;;;;;;5072411;28;20201;-56
2022/04/13 01:36:27;;;;;;;4.87;1.60;;;13.40;97.30;;;;;;5072280;28;20208;-56
2022/04/13 01:38:54;;;;;;;3.43;2.00;;;13.40;97.20;;;;;;5071960;28;20697;-57
2022/04/13 01:41:22;;;;;;;3.20;1.90;;;13.50;97.20;;;;;;5072710;28;20318;-57
2022/04/13 01:43:49;;;;;;;2.50;1.70;;;13.40;97.00;;;;;;5072301;28;20205;-62
2022/04/13 01:46:16;;;;;;;4.70;1.70;;;13.50;96.90;;;;;;5072140;28;20628;-57
2022/04/13 01:48:43;;;;;;;2.50;1.30;;;13.50;96.70;;;;;;5071973;28;20205;-57
2022/04/13 01:51:09;;;;;;;3.70;1.60;;;13.50;96.60;;;;;;5071993;28;20229;-57
2022/04/13 01:53:36;;;;;;;1.87;1.50;;;13.30;96.80;;;;;;5072015;28;20209;-57
2022/04/13 01:56:03;;;;;;;4.23;1.80;;;13.20;97.10;;;;;;5072355;28;20653;-57
2022/04/13 01:58:31;;;;;;;2.47;1.33;;;13.10;97.20;;;;;;5070744;28;20701;-57
2022/04/13 02:00:58;;;;;;;3.10;1.90;;;13.20;97.20;;;;;;5071484;28;20240;-57
2022/04/13 02:03:25;;;;;;;4.07;1.87;;;13.20;97.10;;;;;;5072239;28;20254;-57
2022/04/13 02:05:53;;;;;;;3.57;1.57;;;13.20;97.10;;;;;;5071888;28;20291;-57
2022/04/13 02:08:19;;;;;;;4.53;1.90;;;13.20;97.20;;;;;;5071822;28;20292;-57
2022/04/13 02:10:46;;;;;;;2.43;1.50;;;13.20;97.20;;;;;;5071782;28;20673;-57
2022/04/13 02:13:14;;;;;;;2.67;1.67;;;13.20;97.20;;;;;;5071862;28;20204;-57
2022/04/13 02:15:43;;;;;;;2.87;1.60;;;13.20;97.20;;;;;;5071880;28;20209;-57
2022/04/13 02:18:09;;;;;;;3.10;1.67;;;13.20;97.10;;;;;;5071870;28;20212;-57
2022/04/13 02:20:36;;;;;;;1.80;1.50;;;13.10;97.50;;;;;;5071419;28;20209;-57
2022/04/13 02:23:03;;;;;;;4.10;1.90;;;13.20;97.20;;;;;;5071686;28;20274;-57
2022/04/13 02:25:29;;;;;;;1.50;1.40;;;13.10;97.30;;;;;;5071610;28;20208;-57
2022/04/13 02:27:56;;;;;;;3.40;1.63;;;13.10;97.60;;;;;;5071508;28;20292;-57
2022/04/13 02:30:23;;;;;;;4.87;1.70;;;13.00;98.30;;;;;;5071471;28;20201;-57
2022/04/13 02:32:51;;;;;;;2.23;1.63;;;13.00;98.60;;;;;;5071576;28;20274;-57
2022/04/13 02:35:17;;;;;;;4.07;1.70;;;12.90;98.80;;;;;;5071579;28;20266;-57
2022/04/13 02:37:44;;;;;;;2.30;1.70;;;12.90;98.90;;;;;;5071548;28;20209;-57
2022/04/13 02:40:12;;;;;;;6.30;1.83;;;12.80;98.90;;;;;;5071138;28;20221;-57
2022/04/13 02:42:39;;;;;;;2.80;1.70;;;12.80;99.10;;;;;;5071205;28;20297;-57
2022/04/13 02:45:07;;;;;;;3.30;1.80;;;12.70;99.30;;;;;;5071554;28;20213;-57
2022/04/13 02:47:33;;;;;;;2.37;1.83;;;12.70;99.50;;;;;;5071249;28;20213;-57
2022/04/13 02:50:01;;;;;;;3.50;1.57;;;12.70;99.50;;;;;;5071206;28;20216;-57
2022/04/13 02:52:29;;;;;;;4.93;1.80;;;12.70;99.80;;;;;;5071334;28;20278;-57
2022/04/13 02:54:55;;;;;;;2.10;1.80;;;12.60;99.90;;;;;;5071335;28;20299;-57
2022/04/13 02:57:22;;;;;;;2.53;1.90;;;12.60;99.90;;;;;;5071537;28;20208;-57
2022/04/13 02:59:49;;;;;;;3.43;2.47;;;12.60;99.90;;;;;;5071124;28;20278;-57
2022/04/13 03:02:16;;;;;;;4.33;2.00;;;12.50;99.90;;;;;;5071169;28;20312;-58
2022/04/13 03:04:44;;;;;;;4.30;2.10;;;12.50;99.90;;;;;;5071300;28;20205;-57
2022/04/13 03:07:12;;;;;;;3.73;2.13;;;12.50;99.90;;;;;;5071220;28;20201;-57
2022/04/13 03:09:39;;;;;;;5.00;2.83;;;12.40;99.90;;;;;;5071379;28;20216;-57
2022/04/13 03:12:07;;;;;;;4.23;2.20;;;12.40;99.90;;;;;;5075031;28;20315;-57
2022/04/13 03:14:34;;;;;;;3.23;2.07;;;12.30;99.90;;;;;;5074936;28;20200;-57
2022/04/13 03:17:01;;;;;;;4.37;2.20;;;12.20;99.90;;;;;;5074745;28;20205;-57
2022/04/13 03:19:27;;;;;;;5.23;1.90;;;12.10;99.90;;;;;;5074350;28;20266;-57
2022/04/13 03:21:54;;;;;;;4.93;2.20;;;12.00;99.90;;;;;;5074529;28;20229;-57
2022/04/13 03:24:23;;;;;;;2.00;1.80;;;11.90;99.90;;;;;;5074819;28;20262;-56
2022/04/13 03:26:49;;;;;;;3.93;2.10;;;11.90;99.90;;;;;;5074665;28;20216;-57
2022/04/13 03:29:16;;;;;;;2.87;1.90;;;11.80;99.90;;;;;;5074334;28;20201;-56
2022/04/13 03:31:43;;;;;;;4.13;2.10;;;11.70;99.90;;;;;;5074508;28;20225;-57
2022/04/13 03:34:10;;;;;;;3.10;2.00;;;11.70;99.90;;;;;;5074819;28;20714;-56
2022/04/13 03:36:39;;;;;;;2.93;1.60;;;11.60;99.90;;;;;;5074319;28;20205;-57
2022/04/13 03:39:06;;;;;;;2.67;1.80;;;11.40;99.90;;;;;;5074319;28;20265;-57
2022/04/13 03:41:34;;;;;;;2.57;1.93;;;11.30;99.90;;;;;;5074336;28;20319;-57
2022/04/13 03:44:01;;;;;;;2.77;2.10;;;11.20;99.90;;;;;;5074265;28;20672;-57
2022/04/13 03:46:28;;;;;;;2.90;2.00;;;11.20;99.90;;;;;;5074702;28;20572;-60
2022/04/13 03:48:54;;;;;;;1.90;1.63;;;11.10;99.90;;;;;;5074833;28;20677;-57
2022/04/13 03:51:21;;;;;;;5.30;2.10;;;11.10;99.90;;;;;;5073935;28;20286;-58
2022/04/13 03:53:48;;;;;;;2.93;2.10;;;11.00;99.90;;;;;;5074291;28;20254;-58
2022/04/13 03:56:14;;;;;;;2.47;1.77;;;10.90;99.90;;;;;;5074120;28;20205;-58
2022/04/13 03:58:42;;;;;;;3.10;1.70;;;10.90;99.90;;;;;;5074100;28;20560;-57
2022/04/13 04:01:09;;;;;;;5.00;1.80;;;10.90;99.90;;;;;;5073547;28;20240;-58
2022/04/13 04:03:36;;;;;;;4.10;2.10;;;10.90;99.90;;;;;;5073872;28;20208;-58
2022/04/13 04:06:03;;;;;;;4.13;1.87;;;10.80;99.90;;;;;;5074180;28;20266;-58
2022/04/13 04:08:32;;;;;;;7.33;1.90;;;10.80;99.90;;;;;;5073972;28;20216;-58
2022/04/13 04:10:59;;;;;;;3.60;2.10;;;10.70;99.90;;;;;;5073669;28;20235;-58
2022/04/13 04:13:26;;;;;;;3.70;2.47;;;10.80;99.90;;;;;;5073926;28;20266;-58
2022/04/13 04:15:54;;;;;;;3.27;2.40;;;10.80;99.90;;;;;;5073819;28;20668;-58
2022/04/13 04:18:20;;;;;;;2.50;1.80;;;10.80;99.90;;;;;;5073459;28;20619;-58
2022/04/13 04:20:47;;;;;;;3.30;2.53;;;10.80;99.90;;;;;;5073089;28;20666;-58
2022/04/13 04:23:14;;;;;;;2.23;1.90;;;10.80;99.90;;;;;;5072865;28;20673;-58
2022/04/13 04:25:41;;;;;;;2.83;2.07;;;10.90;99.90;;;;;;5073530;28;20671;-58
2022/04/13 04:28:10;;;;;;;2.30;1.80;;;10.90;99.90;;;;;;5073674;28;20207;-58
2022/04/13 04:30:36;;;;;;;4.70;2.17;;;10.90;99.90;;;;;;5073155;28;20205;-60
2022/04/13 04:33:05;;;;;;;4.97;2.20;;;10.90;99.90;;;;;;5073307;28;20204;-58
2022/04/13 04:35:32;;;;;;;5.33;2.20;;;10.90;99.90;;;;;;5074681;28;20204;-58
2022/04/13 04:37:59;;;;;;;4.17;2.23;;;10.80;99.90;;;;;;5073413;28;20282;-58
2022/04/13 04:40:26;;;;;;;2.97;2.20;;;10.80;99.90;;;;;;5072963;28;20279;-58
2022/04/13 04:42:54;;;;;;;7.23;2.10;;;10.80;99.90;;;;;;5072973;28;20802;-58
2022/04/13 04:45:21;;;;;;;6.73;1.90;;;10.80;99.90;;;;;;5072850;28;20300;-58
2022/04/13 04:47:48;;;;;;;5.03;2.10;;;10.80;99.90;;;;;;5072973;28;20684;-58
2022/04/13 04:50:16;;;;;;;3.17;2.03;;;10.80;99.90;;;;;;5072824;28;20201;-58
2022/04/13 04:52:44;;;;;;;4.33;2.20;;;10.80;99.90;;;;;;5072747;28;20708;-58
2022/04/13 04:55:11;;;;;;;4.67;1.90;;;10.80;99.90;;;;;;5072865;28;20315;-58
2022/04/13 04:57:38;;;;;;;3.77;2.50;;;10.80;99.90;;;;;;5072593;28;20593;-58
2022/04/13 05:00:08;;;;;;;3.03;2.13;;;10.80;99.90;;;;;;5072419;28;20228;-58
2022/04/13 05:02:35;;;;;;;6.97;1.93;;;10.90;99.90;;;;;;5072593;28;20712;-58
2022/04/13 05:05:02;;;;;;;4.83;2.20;;;10.90;99.90;;;;;;5072669;28;20334;-58
2022/04/13 05:07:30;;;;;;;3.60;2.20;;;11.00;99.90;;;;;;5072705;28;20209;-58
2022/04/13 05:09:58;;;;;;;3.47;2.20;;;11.00;99.90;;;;;;5072400;28;20251;-58
2022/04/13 05:12:24;;;;;;;5.50;2.40;;;11.00;99.90;;;;;;5072336;28;20231;-58
2022/04/13 05:14:52;;;;;;;5.23;2.10;;;11.10;99.90;;;;;;5072690;28;20209;-58
2022/04/13 05:17:19;;;;;;;7.10;2.10;;;11.20;99.90;;;;;;5072609;28;20228;-58
2022/04/13 05:19:45;;;;;;;3.23;1.97;;;11.30;99.90;;;;;;5072338;28;20220;-58
2022/04/13 05:22:12;;;;;;;4.20;2.10;;;11.30;99.90;;;;;;5073004;28;20225;-58
2022/04/13 05:24:40;;;;;;;3.93;2.10;;;11.40;99.90;;;;;;5072749;28;20270;-58
2022/04/13 05:27:07;;;;;;;3.53;2.00;;;11.50;99.90;;;;;;5072159;28;20205;-58
2022/04/13 05:29:34;;;;;;;4.13;1.83;;;11.70;99.90;;;;;;5072227;28;20208;-58
2022/04/13 05:32:02;;;;;;;3.57;2.03;;;11.90;99.90;;;;;;5072201;28;20228;-58
2022/04/13 05:34:28;;;;;;;4.33;1.90;;;12.20;99.90;;;;;;5072103;28;20201;-58
2022/04/13 05:36:56;;;;;;;4.27;2.90;;;12.40;99.90;;;;;;5072291;28;20204;-58
2022/04/13 05:39:22;;;;;;;3.27;2.40;;;12.60;99.90;;;;;;5071754;28;20253;-56
2022/04/13 05:41:50;;;;;;;6.07;2.40;;;12.90;99.90;;;;;;5071936;28;20236;-56
2022/04/13 05:44:17;;;;;;;3.80;2.60;;;13.30;99.90;;;;;;5072151;28;20204;-56
2022/04/13 05:46:44;;;;;;;4.90;2.63;;;13.80;99.90;;;;;;5071692;28;20665;-56
2022/04/13 05:49:10;;;;;;;3.97;2.53;;;14.40;99.90;;;;;;5071350;28;20584;-56
2022/04/13 05:51:37;;;;;;;6.17;2.33;;;15.10;99.40;;;;;;5071574;28;20698;-57
2022/04/13 05:54:04;;;;;;;3.10;2.50;;;15.50;98.30;;;;;;5071705;28;20205;-56
2022/04/13 05:56:30;;;;;;;3.40;2.37;;;16.10;97.50;;;;;;5072323;28;20205;-56
2022/04/13 05:58:58;;;;;;;4.90;2.50;;;16.70;96.30;;;;;;5071973;28;20258;-56
2022/04/13 06:01:25;;;;;;;5.20;2.47;;;17.20;95.30;;;;;;5071493;28;20282;-56
2022/04/13 06:03:52;;;;;;;5.47;2.43;;;17.70;93.90;;;;;;5072082;28;20201;-56
2022/04/13 06:06:18;;;;;;;5.97;2.97;;;18.10;93.50;;;;;;5071897;28;20209;-58
2022/04/13 06:08:45;;;;;;;4.85;3.00;;;18.40;92.50;;;;;;5071775;28;20695;-57
2022/04/13 06:11:12;;;;;;;35.13;26.55;;;18.90;91.90;;;;;;5071818;28;20224;-57
2022/04/13 06:13:38;;;;;;;7.25;4.38;;;19.50;90.60;;;;;;5071972;28;20219;-57
2022/04/13 06:16:08;;;;;;;24.92;22.50;;;19.80;90.00;;;;;;5072817;28;20204;-57
2022/04/13 06:18:34;;;;;;;4.93;4.18;;;20.20;89.00;;;;;;5072088;28;20630;-57
2022/04/13 06:21:01;;;;;;;8.02;5.00;;;20.80;87.30;;;;;;5071429;28;20286;-57
2022/04/13 06:23:28;;;;;;;9.30;7.57;;;21.20;85.90;;;;;;5072010;28;20209;-57
2022/04/13 06:25:54;;;;;;;9.07;4.70;;;21.60;83.90;;;;;;5071857;28;20208;-58
2022/04/13 06:28:21;;;;;;;4.90;3.92;;;22.20;82.20;;;;;;5071748;28;20204;-58
2022/04/13 06:30:48;;;;;;;5.45;4.20;;;22.80;80.40;;;;;;5071387;28;20212;-58
2022/04/13 06:33:16;;;;;;;4.57;2.50;;;23.50;78.80;;;;;;5071383;28;20254;-58
2022/04/13 06:35:42;;;;;;;4.70;3.08;;;23.80;74.30;;;;;;5071483;28;20262;-58
2022/04/13 06:38:09;;;;;;;4.65;2.88;;;24.00;74.20;;;;;;5071671;28;20212;-58
2022/04/13 06:40:36;;;;;;;6.78;3.03;;;24.30;73.20;;;;;;5071369;28;20282;-59
2022/04/13 06:43:02;;;;;;;4.93;2.90;;;24.50;72.50;;;;;;5071284;28;20213;-58
2022/04/13 06:45:29;;;;;;;7.30;2.88;;;25.10;70.10;;;;;;5073308;28;20698;-58
2022/04/13 06:47:56;;;;;;;4.55;2.90;;;25.60;66.90;;;;;;5075528;28;20254;-58
2022/04/13 06:50:24;;;;;;;3.90;2.42;;;25.90;65.10;;;;;;5074905;28;20266;-58
2022/04/13 06:52:50;;;;;;;3.67;2.67;;;26.10;66.90;;;;;;5075036;28;20729;-58
2022/04/13 06:55:17;;;;;;;5.10;2.92;;;26.50;65.00;;;;;;5074808;28;20558;-59
2022/04/13 06:57:44;;;;;;;4.50;3.00;;;26.90;63.30;;;;;;5075035;28;20278;-59
2022/04/13 07:00:12;;;;;;;10.23;2.92;;;27.40;61.60;;;;;;5074896;28;20446;-59
2022/04/13 07:02:40;;;;;;;4.90;2.80;;;27.80;58.90;;;;;;5075022;28;20229;-59
2022/04/13 07:05:08;;;;;;;5.90;2.50;;;27.90;58.60;;;;;;5075005;28;20209;-59
2022/04/13 07:07:36;;;;;;;9.73;3.08;;;27.70;58.70;;;;;;5075307;28;20212;-59
2022/04/13 07:10:04;;;;;;;3.85;2.50;;;27.60;59.30;;;;;;5075139;28;20258;-59
2022/04/13 07:12:34;;;;;;;6.47;2.90;;;27.60;58.90;;;;;;5074830;28;20236;-59
2022/04/13 07:15:01;;;;;;;4.22;2.65;;;27.50;59.10;;;;;;5074900;28;20300;-59
2022/04/13 07:17:28;;;;;;;4.43;2.60;;;27.40;59.00;;;;;;5074624;28;20696;-59
2022/04/13 07:19:54;;;;;;;3.97;2.58;;;27.40;58.60;;;;;;5074695;28;20385;-59
2022/04/13 07:22:21;;;;;;;4.47;2.95;;;27.60;58.70;;;;;;5074583;28;20642;-59
2022/04/13 07:24:49;;;;;;;13.35;3.22;;;28.00;58.00;;;;;;5074754;28;20594;-59
2022/04/13 07:27:16;;;;;;;11.68;3.50;;;28.30;57.80;;;;;;5074403;28;20209;-59
2022/04/13 07:29:43;;;;;;;6.20;3.03;;;28.70;57.10;;;;;;5074492;28;20205;-61
2022/04/13 07:32:09;;;;;;;5.10;2.85;;;29.10;56.30;;;;;;5062141;28;20234;-61
2022/04/13 07:34:36;;;;;;;4.03;2.50;;;29.10;56.30;;;;;;5054127;28;20251;-59
2022/04/13 07:37:03;;;;;;;4.80;3.20;;;29.10;56.30;;;;;;5053942;28;20202;-60
2022/04/13 07:39:30;;;;;;;8.02;3.55;;;29.20;55.90;;;;;;5056507;28;20649;-59
2022/04/13 07:41:58;;;;;;;4.75;3.33;;;29.20;55.70;;;;;;5070716;28;20671;-59
2022/04/13 07:44:24;;;;;;;4.13;2.95;;;29.30;55.70;;;;;;5074120;28;20252;-61
2022/04/13 07:46:51;;;;;;;5.82;2.50;;;29.60;55.70;;;;;;5074429;28;20212;-57
2022/04/13 07:49:18;;;;;;;5.78;2.53;;;29.90;55.10;;;;;;5073779;28;20205;-59
2022/04/13 07:51:44;;;;;;;5.85;2.35;;;30.20;54.50;;;;;;5074224;28;20593;-59
2022/04/13 07:54:11;;;;;;;4.10;2.50;;;30.60;54.20;;;;;;5074099;28;20213;-58
2022/04/13 07:56:40;;;;;;;7.45;3.63;;;30.60;53.40;;;;;;5073912;28;20266;-58
2022/04/13 07:59:08;;;;;;;4.85;2.95;;;30.30;53.40;;;;;;5073798;28;20250;-57
2022/04/13 08:01:35;;;;;;;5.47;2.45;;;30.30;53.30;;;;;;5073408;28;20228;-59
2022/04/13 08:04:01;;;;;;;5.80;2.50;;;30.30;53.20;;;;;;5074193;28;20205;-57
2022/04/13 08:06:29;;;;;;;6.60;2.45;;;29.70;54.10;;;;;;5073885;28;20262;-58
2022/04/13 08:08:56;;;;;;;4.32;2.60;;;29.40;54.70;;;;;;5073804;28;20216;-58
2022/04/13 08:11:23;;;;;;;4.28;2.75;;;29.60;54.70;;;;;;5073377;28;20221;-58
2022/04/13 08:13:49;;;;;;;3.78;2.40;;;30.00;53.80;;;;;;5073217;28;20316;-57
2022/04/13 08:16:17;;;;;;;4.15;2.70;;;30.10;53.60;;;;;;5073606;28;20255;-59
2022/04/13 08:18:45;;;;;;;6.53;2.80;;;29.80;54.30;;;;;;5073512;28;20608;-58
2022/04/13 08:21:11;;;;;;;5.53;2.65;;;29.30;54.90;;;;;;5073269;28;20243;-58
2022/04/13 08:23:38;;;;;;;5.82;2.78;;;28.60;56.20;;;;;;5073618;28;20262;-58
2022/04/13 08:26:05;;;;;;;4.55;2.28;;;28.00;57.00;;;;;;5073553;28;20238;-58
2022/04/13 08:28:31;;;;;;;4.50;2.25;;;27.40;57.60;;;;;;5073631;28;20209;-58
2022/04/13 08:30:58;;;;;;;5.07;2.50;;;26.90;58.30;;;;;;5073330;28;20229;-58
2022/04/13 08:33:26;;;;;;;7.40;2.60;;;26.50;59.10;;;;;;5073425;28;20209;-58
2022/04/13 08:35:53;;;;;;;7.97;2.88;;;26.10;60.40;;;;;;5073710;28;20209;-57
2022/04/13 08:38:20;;;;;;;5.68;2.97;;;25.80;63.00;;;;;;5072862;28;20205;-57
2022/04/13 08:40:54;;;;;;;8.38;2.85;;;25.60;64.80;;;;;;5073049;28;20227;-56
2022/04/13 08:43:27;;;;;;;4.55;2.90;;;25.60;65.70;;;;;;5073029;28;20213;-56
2022/04/13 08:45:55;;;;;;;6.13;2.65;;;25.40;65.60;;;;;;5073061;28;20208;-55
2022/04/13 08:48:23;;;;;;;4.55;3.10;;;25.00;66.70;;;;;;5072856;28;20232;-56
2022/04/13 08:50:58;;;;;;;4.72;3.10;;;24.30;67.60;;;;;;5072783;28;20296;-57
2022/04/13 08:53:28;;;;;;;7.55;5.30;;;24.00;68.80;;;;;;5072797;28;20211;-57
2022/04/13 08:55:55;;;;;;;4.40;2.60;;;24.10;70.20;;;;;;5073395;28;20209;-56
2022/04/13 08:58:30;;;;;;;5.78;2.55;;;24.00;70.60;;;;;;5072722;28;20644;-56
2022/04/13 09:01:00;;;;;;;3.83;2.60;;;24.00;70.60;;;;;;5072487;28;20315;-57
2022/04/13 09:03:37;;;;;;;5.53;2.40;;;24.20;70.20;;;;;;5073431;28;20212;-56
2022/04/13 09:06:06;;;;;;;4.38;2.30;;;24.20;69.80;;;;;;5073010;28;20232;-56
2022/04/13 09:08:40;;;;;;;4.97;2.55;;;24.20;69.70;;;;;;5072397;28;20259;-55
2022/04/13 09:11:08;;;;;;;5.10;2.25;;;24.20;70.50;;;;;;5072574;28;20225;-56
2022/04/13 09:13:36;;;;;;;3.42;2.20;;;24.10;69.10;;;;;;5072145;28;20209;-58
2022/04/13 09:16:04;;;;;;;5.03;2.10;;;23.90;69.40;;;;;;5072135;28;20787;-56
2022/04/13 09:18:30;;;;;;;6.88;2.67;;;23.90;70.10;;;;;;5072418;28;20288;-56
2022/04/13 09:20:59;;;;;;;9.75;2.70;;;23.90;71.30;;;;;;5072176;28;20647;-56
2022/04/13 09:23:29;;;;;;;8.50;2.65;;;23.90;72.20;;;;;;5072292;28;20205;-56
2022/04/13 09:25:58;;;;;;;4.53;2.85;;;24.00;71.50;;;;;;5071888;28;20221;-56
2022/04/13 09:28:25;;;;;;;4.63;2.60;;;24.00;71.30;;;;;;5072223;28;20205;-57
2022/04/13 09:30:53;;;;;;;3.35;2.40;;;24.00;70.90;;;;;;5071631;28;20208;-56
2022/04/13 09:33:19;;;;;;;7.55;2.58;;;24.10;70.30;;;;;;5072313;28;20266;-56
2022/04/13 09:35:46;;;;;;;4.20;2.58;;;24.20;70.20;;;;;;5072535;28;20304;-56
2022/04/13 09:38:13;;;;;;;4.90;2.38;;;24.10;69.70;;;;;;5072151;28;20282;-56
2022/04/13 09:40:42;;;;;;;3.95;2.58;;;24.10;69.30;;;;;;5071486;28;20228;-57
2022/04/13 09:43:10;;;;;;;4.78;2.53;;;24.20;69.70;;;;;;5071988;28;20266;-56
2022/04/13 09:45:39;;;;;;;3.67;2.58;;;24.50;69.20;;;;;;5071582;28;20204;-57
2022/04/13 09:48:07;;;;;;;5.07;2.47;;;24.70;68.30;;;;;;5071461;28;20630;-56
2022/04/13 09:50:35;;;;;;;4.75;2.55;;;24.80;68.40;;;;;;5071047;28;20216;-56
2022/04/13 09:53:05;;;;;;;9.68;3.67;;;24.90;68.40;;;;;;5071317;28;20715;-57
2022/04/13 09:55:34;;;;;;;7.45;3.00;;;25.10;68.00;;;;;;5071846;28;20254;-56
2022/04/13 09:58:07;;;;;;;4.18;2.42;;;25.30;67.50;;;;;;5071694;28;20741;-57
2022/04/13 10:00:34;;;;;;;7.57;3.38;;;25.50;67.30;;;;;;5071533;28;20677;-57
2022/04/13 10:03:09;;;;;;;4.95;2.78;;;25.60;68.00;;;;;;5071699;28;20665;-56
2022/04/13 10:05:36;;;;;;;4.82;2.55;;;25.80;67.90;;;;;;5071798;28;20204;-56
2022/04/13 10:08:03;;;;;;;6.70;2.70;;;25.80;67.70;;;;;;5071381;28;20672;-57
2022/04/13 10:10:31;;;;;;;5.65;2.70;;;25.80;67.20;;;;;;5071753;28;20209;-57
2022/04/13 10:12:58;;;;;;;5.20;2.55;;;25.90;67.00;;;;;;5071723;28;20224;-57
2022/04/13 10:15:26;;;;;;;4.50;2.90;;;25.90;65.50;;;;;;5072428;28;20213;-57
2022/04/13 10:17:58;;;;;;;7.85;3.38;;;25.70;66.00;;;;;;5072126;28;20259;-57
2022/04/13 10:20:40;;;;;;;6.20;3.20;;;25.70;65.80;;;;;;5074024;28;20630;-57
2022/04/13 10:23:07;;;;;;;3.67;2.38;;;25.70;65.90;;;;;;5076016;28;20209;-57
2022/04/13 10:25:34;;;;;;;3.55;2.42;;;25.50;65.40;;;;;;5075679;28;20216;-57
2022/04/13 10:28:02;;;;;;;3.53;2.53;;;25.50;66.60;;;;;;5075321;28;20208;-56
2022/04/13 10:30:31;;;;;;;6.20;2.30;;;25.60;65.90;;;;;;5076119;28;20213;-56
2022/04/13 10:33:00;;;;;;;6.43;2.45;;;25.70;65.50;;;;;;5076150;28;20225;-56
2022/04/13 10:35:28;;;;;;;5.20;2.03;;;25.80;65.10;;;;;;5075815;28;20633;-56
2022/04/13 10:37:55;;;;;;;4.53;2.35;;;25.70;65.60;;;;;;5075386;28;20732;-56
2022/04/13 10:40:23;;;;;;;6.22;2.50;;;25.50;65.20;;;;;;5075041;28;20208;-59
2022/04/13 10:42:52;;;;;;;5.75;3.80;;;25.30;65.90;;;;;;5075292;28;20295;-56
2022/04/13 10:45:19;;;;;;;6.60;2.63;;;25.20;67.10;;;;;;5074834;28;20201;-56
2022/04/13 10:47:53;;;;;;;3.65;1.92;;;25.30;67.70;;;;;;5074688;28;20270;-56
2022/04/13 10:50:30;;;;;;;4.75;2.08;;;25.30;67.90;;;;;;5074556;28;20257;-56
2022/04/13 10:52:59;;;;;;;6.65;2.30;;;25.30;68.00;;;;;;5075172;28;20224;-56
2022/04/13 10:55:29;;;;;;;6.45;2.30;;;25.50;68.50;;;;;;5074828;28;20211;-56
2022/04/13 10:58:00;;;;;;;4.63;2.22;;;25.60;68.60;;;;;;5074907;28;20589;-55
2022/04/13 11:00:31;;;;;;;6.45;3.05;;;25.70;67.80;;;;;;5074633;28;20205;-59
2022/04/13 11:03:03;;;;;;;11.05;2.60;;;25.80;67.90;;;;;;5075116;28;20274;-57
2022/04/13 11:05:31;;;;;;;4.75;2.30;;;25.80;67.90;;;;;;5075221;28;20205;-55
2022/04/13 11:08:13;;;;;;;7.15;2.65;;;25.70;67.50;;;;;;5074737;28;20205;-54
2022/04/13 11:10:41;;;;;;;6.82;2.60;;;25.70;67.60;;;;;;5074382;28;20272;-59
2022/04/13 11:13:08;;;;;;;7.65;2.63;;;25.90;66.90;;;;;;5074557;28;20205;-63
2022/04/13 11:15:40;;;;;;;3.33;2.10;;;26.00;67.00;;;;;;5074304;28;20551;-58
2022/04/13 11:18:13;;;;;;;3.38;2.00;;;25.90;66.70;;;;;;5074492;28;20245;-58
2022/04/13 11:21:05;;;;;;;3.58;2.00;;;25.90;67.20;;;;;;5074270;28;20262;-59
2022/04/13 11:23:49;;;;;;;6.40;2.17;;;25.90;66.50;;;;;;5074480;28;20622;-59
2022/04/13 11:26:17;;;;;;;4.97;2.33;;;25.80;66.90;;;;;;5074732;28;20216;-60
2022/04/13 11:28:44;;;;;;;4.95;2.15;;;25.70;67.70;;;;;;5074244;28;20209;-60
2022/04/13 11:31:12;;;;;;;5.40;2.40;;;25.90;67.60;;;;;;5074037;28;20225;-59
2022/04/13 11:34:06;;;;;;;5.43;2.20;;;25.90;66.30;;;;;;5074428;28;20632;-60
2022/04/13 11:36:51;;;;;;;7.72;2.20;;;25.90;66.70;;;;;;5070962;28;20212;-61
2022/04/13 11:39:44;;;;;;;11.52;2.42;;;26.00;66.50;;;;;;5074512;28;20296;-58
2022/04/13 11:42:15;;;;;;;6.93;2.28;;;26.20;67.10;;;;;;5074353;28;20262;-59
2022/04/13 11:44:49;;;;;;;7.18;2.15;;;26.50;66.40;;;;;;5074547;28;20205;-58
2022/04/13 11:47:17;;;;;;;7.35;2.13;;;26.60;66.70;;;;;;5074041;28;20213;-58
2022/04/13 11:50:00;;;;;;;4.10;1.88;;;26.70;65.70;;;;;;5074066;28;20636;-59
2022/04/13 11:52:46;;;;;;;8.63;2.30;;;26.70;65.80;;;;;;5074115;28;20224;-59
2022/04/13 11:55:18;;;;;;;5.10;1.85;;;26.90;65.40;;;;;;5074196;28;20296;-59
2022/04/13 11:58:02;;;;;;;10.27;2.17;;;27.20;64.80;;;;;;5074703;28;20295;-61
2022/04/13 12:00:41;;;;;;;5.22;1.88;;;27.30;64.40;;;;;;5074040;28;20322;-59
2022/04/13 12:03:10;;;;;;;5.00;2.05;;;27.30;63.80;;;;;;5074422;28;20648;-58
2022/04/13 12:05:39;;;;;;;3.15;1.90;;;27.30;64.40;;;;;;5074332;28;20209;-58
2022/04/13 12:08:12;;;;;;;6.95;1.92;;;27.20;63.10;;;;;;5074092;28;20254;-58
2022/04/13 12:10:39;;;;;;;5.82;1.70;;;27.00;63.50;;;;;;5073975;28;20244;-58
2022/04/13 12:13:06;;;;;;;3.90;1.85;;;26.80;64.30;;;;;;5073916;28;20197;-58
2022/04/13 12:15:50;;;;;;;5.18;2.33;;;26.60;65.00;;;;;;5073704;28;20606;-58
2022/04/13 12:18:18;;;;;;;4.85;2.13;;;26.50;64.30;;;;;;5072272;28;20232;-59
2022/04/13 12:20:47;;;;;;;5.97;2.10;;;26.60;63.80;;;;;;5073413;28;20217;-58
2022/04/13 12:23:21;;;;;;;8.35;2.38;;;26.60;63.00;;;;;;5074118;28;20323;-58
2022/04/13 12:25:50;;;;;;;3.75;1.90;;;26.50;63.10;;;;;;5073559;28;20753;-58
2022/04/13 12:28:19;;;;;;;6.28;1.92;;;26.60;63.10;;;;;;5073953;28;20266;-58
2022/04/13 12:30:55;;;;;;;9.25;1.83;;;26.60;62.10;;;;;;5073633;28;20289;-58
2022/04/13 12:33:23;;;;;;;4.85;2.03;;;26.60;62.30;;;;;;5073876;28;20291;-58
2022/04/13 12:35:55;;;;;;;3.30;1.85;;;26.60;63.20;;;;;;5073541;28;20209;-58
2022/04/13 12:38:24;;;;;;;4.97;2.30;;;26.80;62.80;;;;;;5073491;28;20205;-58
2022/04/13 12:41:02;;;;;;;8.60;2.47;;;27.00;62.50;;;;;;5073526;28;20212;-59
2022/04/13 12:43:28;;;;;;;6.82;1.77;;;27.20;62.30;;;;;;5072635;28;20232;-63
2022/04/13 12:45:55;;;;;;;7.18;1.88;;;27.40;62.40;;;;;;5073556;28;20205;-59
2022/04/13 12:48:26;;;;;;;7.68;2.05;;;27.40;62.50;;;;;;5073570;28;20201;-58
2022/04/13 12:51:02;;;;;;;10.02;2.28;;;27.40;62.20;;;;;;5073066;28;20291;-58